Meling Ranch Airstrip

Jump to: basic info | weather | comments

Related pages: nearby airports | nearby navaids

Basic information (top)

Codes: MSJG
Location: lon 30.975328, lat -115.737877
Status: small_airport

Weather (top)

Current conditions for General Rodolfo Sánchez Taboada International Airport 103nm (190km) NNE (rec'd 2014/04/19 03:41Z):

MMML 190341Z 08007KT 10SM FEW120 SCT200 23/10 A2982 RMK 8/038

Airport forecast for General Rodolfo Sánchez Taboada International Airport 103nm (190km) NNE (rec'd 2014/04/16 18:14Z):

TAF MMML 161708Z 1618/1718 23010KT P6SM SKC 
      BECMG 1701/1702 00000KT 
     FM171500 28010KT P6SM SKC

Latest comments (top)

No comments yet for Meling Ranch Airstrip

More... (top)

See also NOTAMs and nearby airports and navaids, or visit the Meling Ranch Airstrip page at the main OurAirports website..